SBOSBO KRS / ENCN
Speedbird OnlineSpeedbird Online KRS / ENCN

Kristiansand Airport
11:55 18.9°C

Location Kristiansand, Norway
Latitude: 58.204201
Longitude: 8.08537
Local Time 11:55 on 17 Jul 2024
UTC +2 hours (Europe/Oslo)
Currency £1 equals NOK 14.00
METAR ENCN 170920Z 28003KT 250V310 9999 SCT011 SCT048 18/14 Q1011
TAF TAF ENCN 170800Z 1709/1718 VRB03KT 9999 BKN030 BECMG 1709/1711 21010KT TEMPO 1712/1715 FEW025TCU BECMG 1713/1715 29010KT
Weather As Of 17 Jul 2024 11:55
Description Scattered clouds
Wind 7 km/h from South (200°)
Cloud Cover 40%
Precipitation Rain: none, Snow: none
Sunrise 04:50
Sunset 22:16
Codes IATA: KRS
ICAO: ENCN
Altitude 17 Meter / 57 Feet
Distance 901 KM / 560 Miles
from London.



Support Speedbird Online

© 2017-2024 Speedbird Online